createdAt,value
2018-10-16T00:01:42.035Z,21.27
2018-10-16T00:04:08.456Z,21.26
2018-10-16T00:06:34.951Z,21.27
2018-10-16T00:09:01.383Z,21.27
2018-10-16T00:11:27.763Z,21.26
2018-10-16T00:13:54.272Z,21.24
2018-10-16T00:16:20.769Z,21.27
2018-10-16T00:18:47.160Z,21.22
2018-10-16T00:21:13.631Z,21.19
2018-10-16T00:23:40.073Z,21.21
2018-10-16T00:26:06.624Z,21.25
2018-10-16T00:28:33.042Z,21.21
2018-10-16T00:30:59.481Z,21.19
2018-10-16T00:33:25.960Z,21.18
2018-10-16T00:35:52.360Z,21.14
2018-10-16T00:38:18.883Z,21.15
2018-10-16T00:40:45.285Z,21.15
2018-10-16T00:43:11.669Z,21.13
2018-10-16T00:45:38.065Z,21.13
2018-10-16T00:48:04.456Z,21.13
2018-10-16T00:50:30.861Z,21.09
2018-10-16T00:52:57.398Z,21.10
2018-10-16T00:55:23.784Z,21.12
2018-10-16T00:57:50.197Z,21.09
2018-10-16T01:00:16.571Z,21.09
2018-10-16T01:02:42.954Z,21.10
2018-10-16T01:05:09.339Z,21.06
2018-10-16T01:07:35.792Z,20.94
2018-10-16T01:10:02.214Z,20.85
2018-10-16T01:12:28.606Z,20.79
2018-10-16T01:14:54.987Z,20.76
2018-10-16T01:17:21.400Z,20.74
2018-10-16T01:19:47.801Z,20.75
2018-10-16T01:22:14.204Z,20.75
2018-10-16T01:24:40.634Z,20.77
2018-10-16T01:27:07.023Z,20.78
2018-10-16T01:29:33.430Z,20.80
2018-10-16T01:31:59.847Z,20.82
2018-10-16T01:34:26.370Z,20.85
2018-10-16T01:36:52.772Z,20.86
2018-10-16T01:39:19.153Z,20.87
2018-10-16T01:41:45.552Z,20.85
2018-10-16T01:44:11.945Z,20.87
2018-10-16T01:46:38.321Z,20.88
2018-10-16T01:49:04.710Z,20.88
2018-10-16T01:51:31.085Z,20.91
2018-10-16T01:53:57.454Z,20.90
2018-10-16T01:56:23.830Z,20.93
2018-10-16T01:58:50.238Z,20.93
2018-10-16T02:01:16.669Z,20.94
2018-10-16T02:03:43.073Z,20.96
2018-10-16T02:06:09.461Z,20.98
2018-10-16T02:08:35.868Z,20.97
2018-10-16T02:11:02.432Z,20.98
2018-10-16T02:13:28.812Z,20.99
2018-10-16T02:15:55.261Z,20.99
2018-10-16T02:18:21.670Z,21.03
2018-10-16T02:20:48.083Z,21.03
2018-10-16T02:23:14.506Z,21.02
2018-10-16T02:25:40.923Z,21.06
2018-10-16T02:28:07.350Z,21.05
2018-10-16T02:30:33.788Z,21.05
2018-10-16T02:33:00.422Z,21.06
2018-10-16T02:35:26.819Z,21.07
2018-10-16T02:37:53.279Z,21.11
2018-10-16T02:40:19.750Z,21.10
2018-10-16T02:42:46.149Z,21.14
2018-10-16T02:45:12.549Z,21.12
2018-10-16T02:47:38.996Z,21.11
2018-10-16T02:50:05.373Z,21.12
2018-10-16T02:52:31.781Z,21.15
2018-10-16T02:54:58.205Z,21.17
2018-10-16T02:57:24.650Z,21.18
2018-10-16T02:59:51.058Z,21.12
2018-10-16T03:02:17.503Z,21.15
2018-10-16T03:04:43.936Z,21.17
2018-10-16T03:07:10.401Z,21.21
2018-10-16T03:09:36.783Z,21.23
2018-10-16T03:12:03.218Z,21.28
2018-10-16T03:14:29.684Z,21.27
2018-10-16T03:16:56.140Z,21.29
2018-10-16T03:19:22.537Z,21.30
2018-10-16T03:21:48.970Z,21.34
2018-10-16T03:24:15.404Z,21.33
2018-10-16T03:26:41.850Z,21.41
2018-10-16T03:29:08.238Z,21.40
2018-10-16T03:31:34.666Z,21.40
2018-10-16T03:34:01.062Z,21.42
2018-10-16T03:36:27.511Z,21.46
2018-10-16T03:38:53.979Z,21.53
2018-10-16T03:41:20.478Z,21.58
2018-10-16T03:43:46.914Z,21.57
2018-10-16T03:46:13.365Z,21.65
2018-10-16T03:48:39.725Z,21.67
2018-10-16T03:51:06.116Z,21.75
2018-10-16T03:53:32.553Z,21.77
2018-10-16T03:55:59.130Z,21.84
2018-10-16T03:58:25.557Z,22.01
2018-10-16T04:00:51.957Z,22.46
2018-10-16T04:03:18.467Z,22.54
2018-10-16T04:05:44.863Z,22.79
2018-10-16T04:08:11.252Z,22.82
2018-10-16T04:10:37.681Z,23.01
2018-10-16T04:13:04.081Z,23.02
2018-10-16T04:15:30.550Z,23.13
2018-10-16T04:17:56.927Z,23.12
2018-10-16T04:20:23.387Z,23.18
2018-10-16T04:22:49.866Z,23.12
2018-10-16T04:25:16.312Z,23.20
2018-10-16T04:27:42.862Z,23.15
2018-10-16T04:30:09.394Z,23.15
2018-10-16T04:32:35.924Z,23.29
2018-10-16T04:35:02.315Z,23.30
2018-10-16T04:37:28.784Z,23.21
2018-10-16T04:39:55.186Z,23.29
2018-10-16T04:42:21.606Z,23.21
2018-10-16T04:44:48.008Z,23.34
2018-10-16T04:47:14.438Z,23.36
2018-10-16T04:49:40.876Z,23.34
2018-10-16T04:52:07.306Z,23.27
2018-10-16T04:54:33.740Z,23.43
2018-10-16T04:57:00.185Z,23.47
2018-10-16T04:59:26.591Z,23.52
2018-10-16T05:01:53.030Z,23.45
2018-10-16T05:04:19.446Z,23.48
2018-10-16T05:06:45.852Z,23.52
2018-10-16T05:09:12.231Z,23.53
2018-10-16T05:11:38.651Z,23.55
2018-10-16T05:14:05.070Z,23.57
2018-10-16T05:16:31.504Z,23.58
2018-10-16T05:18:57.922Z,23.55
2018-10-16T05:21:24.423Z,23.72
2018-10-16T05:23:50.812Z,23.58
2018-10-16T05:26:17.224Z,23.72
2018-10-16T05:28:43.622Z,23.86
2018-10-16T05:31:10.139Z,23.86
2018-10-16T05:33:36.485Z,23.85
2018-10-16T05:36:02.858Z,24.07
2018-10-16T05:38:29.305Z,24.11
2018-10-16T05:40:55.711Z,24.19
2018-10-16T05:43:22.142Z,24.20
2018-10-16T05:45:48.526Z,24.17
2018-10-16T05:48:15.035Z,24.44
2018-10-16T05:50:41.469Z,24.39
2018-10-16T05:53:08.004Z,24.51
2018-10-16T05:55:34.490Z,24.59
2018-10-16T05:58:01.033Z,24.66
2018-10-16T06:00:27.443Z,24.64
2018-10-16T06:02:54.050Z,24.66
2018-10-16T06:05:20.641Z,24.66
2018-10-16T06:07:48.638Z,24.66
2018-10-16T06:10:15.091Z,24.70
2018-10-16T06:12:41.721Z,24.73
2018-10-16T06:15:08.165Z,24.71
2018-10-16T06:17:34.578Z,24.78
2018-10-16T06:20:01.123Z,24.95
2018-10-16T06:22:28.298Z,24.91
2018-10-16T06:24:54.711Z,25.05
2018-10-16T06:27:21.238Z,25.07
2018-10-16T06:29:47.665Z,24.97
2018-10-16T06:32:14.115Z,24.93
2018-10-16T06:34:40.533Z,25.01
2018-10-16T06:37:06.925Z,24.95
2018-10-16T06:39:33.324Z,25.26
2018-10-16T06:41:59.811Z,25.27
2018-10-16T06:44:26.503Z,25.25
2018-10-16T06:46:52.916Z,25.21
2018-10-16T06:49:19.438Z,25.36
2018-10-16T06:51:45.884Z,25.35
2018-10-16T06:54:12.289Z,25.41
2018-10-16T06:56:38.779Z,25.48
2018-10-16T06:59:05.164Z,25.47
2018-10-16T07:01:31.553Z,25.45
2018-10-16T07:03:57.998Z,25.39
2018-10-16T07:06:24.460Z,25.39
2018-10-16T07:08:50.914Z,25.53
2018-10-16T07:11:17.316Z,25.54
2018-10-16T07:13:43.760Z,25.59
2018-10-16T07:16:10.193Z,25.41
2018-10-16T07:18:36.627Z,25.48
2018-10-16T07:21:03.127Z,25.64
2018-10-16T07:23:29.581Z,25.47
2018-10-16T07:25:55.942Z,25.64
2018-10-16T07:28:22.573Z,25.64
2018-10-16T07:30:49.063Z,25.47
2018-10-16T07:33:15.466Z,25.67
2018-10-16T07:35:41.876Z,25.56
2018-10-16T07:38:08.363Z,25.55
2018-10-16T07:40:34.768Z,25.65
2018-10-16T07:43:01.351Z,25.74
2018-10-16T07:45:27.800Z,25.63
2018-10-16T07:47:54.273Z,25.45
2018-10-16T07:50:20.681Z,25.44
2018-10-16T07:52:47.120Z,25.57
2018-10-16T07:55:13.748Z,25.38
2018-10-16T07:57:40.167Z,25.46
2018-10-16T08:00:06.604Z,25.43
2018-10-16T08:02:33.123Z,25.54
2018-10-16T08:04:59.537Z,25.65
2018-10-16T08:07:25.978Z,25.45
2018-10-16T08:09:53.336Z,25.43
2018-10-16T08:12:19.739Z,25.41
2018-10-16T08:14:46.206Z,25.41
2018-10-16T08:17:12.784Z,25.28
2018-10-16T08:19:39.190Z,25.32
2018-10-16T08:22:05.642Z,25.22
2018-10-16T08:24:32.048Z,25.27
2018-10-16T08:26:58.533Z,25.31
2018-10-16T08:29:25.020Z,25.25
2018-10-16T08:31:51.505Z,25.26
2018-10-16T08:34:18.056Z,25.20
2018-10-16T08:36:44.436Z,25.16
2018-10-16T08:39:10.832Z,25.06
2018-10-16T08:41:37.239Z,25.03
2018-10-16T08:44:03.801Z,24.87
2018-10-16T08:46:30.243Z,24.77
2018-10-16T08:48:56.678Z,24.87
2018-10-16T08:51:23.082Z,24.84
2018-10-16T08:53:49.538Z,24.94
2018-10-16T08:56:15.923Z,24.92
2018-10-16T08:58:42.306Z,24.91
2018-10-16T09:01:08.682Z,24.79
2018-10-16T09:03:35.099Z,24.77
2018-10-16T09:06:01.482Z,24.86
2018-10-16T09:08:28.030Z,24.81
2018-10-16T09:10:54.466Z,24.89
2018-10-16T09:13:21.000Z,24.81
2018-10-16T09:15:47.404Z,24.64
2018-10-16T09:18:13.807Z,24.70
2018-10-16T09:20:40.249Z,24.73
2018-10-16T09:23:07.112Z,24.67
2018-10-16T09:25:33.621Z,24.59
2018-10-16T09:28:00.312Z,24.69
2018-10-16T09:30:26.750Z,24.62
2018-10-16T09:32:53.325Z,24.55
2018-10-16T09:35:19.748Z,24.52
2018-10-16T09:37:46.281Z,24.52
2018-10-16T09:40:12.652Z,24.54
2018-10-16T09:42:39.091Z,24.48
2018-10-16T09:45:05.753Z,24.53
2018-10-16T09:47:32.293Z,24.49
2018-10-16T09:49:58.925Z,24.41
2018-10-16T09:52:25.325Z,24.50
2018-10-16T09:54:51.898Z,24.52
2018-10-16T09:57:18.359Z,24.54
2018-10-16T09:59:44.764Z,24.47
2018-10-16T10:02:11.289Z,24.46
2018-10-16T10:04:37.790Z,24.52
2018-10-16T10:07:04.205Z,24.44
2018-10-16T10:09:31.001Z,24.56
2018-10-16T10:11:57.438Z,24.42
2018-10-16T10:14:25.483Z,24.52
2018-10-16T10:16:51.906Z,24.50
2018-10-16T10:19:18.374Z,24.48
2018-10-16T10:21:44.779Z,24.40
2018-10-16T10:24:11.257Z,24.41
2018-10-16T10:26:37.742Z,24.47
2018-10-16T10:29:04.194Z,24.44
2018-10-16T10:31:30.683Z,24.38
2018-10-16T10:33:57.060Z,24.42
2018-10-16T10:36:23.461Z,24.38
2018-10-16T10:38:49.845Z,24.45
2018-10-16T10:41:16.314Z,24.48
2018-10-16T10:43:42.800Z,24.49
2018-10-16T10:46:09.400Z,24.52
2018-10-16T10:48:35.912Z,24.52
2018-10-16T10:51:02.503Z,24.56
2018-10-16T10:53:28.784Z,24.56
2018-10-16T10:55:55.180Z,24.56
2018-10-16T10:58:21.609Z,24.64
2018-10-16T11:00:48.101Z,24.51
2018-10-16T11:03:14.634Z,24.52
2018-10-16T11:05:41.044Z,24.45
2018-10-16T11:08:07.449Z,24.67
2018-10-16T11:10:33.888Z,24.72
2018-10-16T11:13:00.407Z,24.49
2018-10-16T11:15:26.843Z,24.62
2018-10-16T11:17:53.336Z,24.61
2018-10-16T11:20:19.927Z,24.49
2018-10-16T11:22:46.345Z,24.67
2018-10-16T11:25:12.797Z,24.67
2018-10-16T11:27:39.319Z,24.51
2018-10-16T11:30:05.781Z,24.61
2018-10-16T11:32:32.214Z,24.45
2018-10-16T11:34:58.594Z,24.65
2018-10-16T11:37:25.092Z,24.54
2018-10-16T11:39:52.389Z,24.68
2018-10-16T11:42:18.793Z,24.79
2018-10-16T11:44:45.367Z,24.75
2018-10-16T11:47:11.773Z,25.00
2018-10-16T11:49:38.325Z,24.91
2018-10-16T11:52:05.045Z,25.00
2018-10-16T11:54:31.476Z,24.90
2018-10-16T11:56:57.879Z,24.85
2018-10-16T11:59:24.491Z,25.18
2018-10-16T12:01:50.812Z,25.21
2018-10-16T12:04:17.298Z,25.06
2018-10-16T12:06:43.733Z,25.17
2018-10-16T12:09:10.646Z,25.24
2018-10-16T12:11:37.248Z,25.14
2018-10-16T12:14:03.775Z,25.17
2018-10-16T12:16:32.403Z,25.16
2018-10-16T12:18:58.836Z,25.09
2018-10-16T12:21:25.232Z,25.32
2018-10-16T12:23:51.651Z,24.99
2018-10-16T12:26:18.088Z,25.01
2018-10-16T12:28:44.711Z,24.94
2018-10-16T12:31:11.340Z,25.05
2018-10-16T12:33:39.669Z,24.96
2018-10-16T12:36:06.179Z,24.92
2018-10-16T12:38:32.715Z,24.89
2018-10-16T12:40:59.166Z,24.97
2018-10-16T12:43:25.632Z,24.93
2018-10-16T12:45:52.115Z,25.04
2018-10-16T12:48:18.532Z,25.06
2018-10-16T12:50:44.955Z,25.25
2018-10-16T12:53:11.413Z,24.66
2018-10-16T12:55:37.824Z,24.90
2018-10-16T12:58:04.490Z,25.02
2018-10-16T13:00:30.915Z,25.00
2018-10-16T13:02:57.337Z,25.08
2018-10-16T13:05:23.883Z,25.07
2018-10-16T13:07:50.349Z,25.36
2018-10-16T13:10:16.802Z,25.25
2018-10-16T13:12:43.205Z,25.25
2018-10-16T13:15:09.707Z,25.24
2018-10-16T13:17:36.149Z,25.08
2018-10-16T13:20:03.472Z,25.09
2018-10-16T13:22:29.815Z,25.18
2018-10-16T13:24:56.249Z,25.26
2018-10-16T13:27:22.683Z,25.17
2018-10-16T13:29:49.119Z,25.04
2018-10-16T13:32:16.055Z,24.98
2018-10-16T13:34:42.600Z,25.05
2018-10-16T13:37:09.038Z,25.13
2018-10-16T13:39:35.494Z,25.11
2018-10-16T13:42:01.926Z,25.22
2018-10-16T13:44:28.360Z,25.14
2018-10-16T13:46:54.779Z,25.04
2018-10-16T13:49:21.211Z,25.01
2018-10-16T13:51:47.732Z,25.23
2018-10-16T13:54:14.169Z,24.94
2018-10-16T13:56:40.680Z,25.07
2018-10-16T13:59:07.119Z,25.04
2018-10-16T14:01:33.581Z,24.92
2018-10-16T14:04:00.068Z,24.78
2018-10-16T14:06:26.463Z,25.02
2018-10-16T14:08:52.855Z,25.00
2018-10-16T14:11:19.277Z,25.02
2018-10-16T14:13:45.722Z,25.12
2018-10-16T14:16:12.242Z,25.08
2018-10-16T14:18:38.639Z,25.08
2018-10-16T14:21:05.155Z,25.01
2018-10-16T14:23:31.593Z,24.90
2018-10-16T14:25:58.075Z,24.85
2018-10-16T14:28:24.487Z,24.73
2018-10-16T14:30:50.937Z,24.82
2018-10-16T14:33:17.358Z,24.87
2018-10-16T14:35:43.863Z,24.90
2018-10-16T14:38:10.498Z,24.80
2018-10-16T14:40:36.869Z,24.78
2018-10-16T14:43:03.375Z,24.76
2018-10-16T14:45:29.893Z,24.76
2018-10-16T14:47:56.398Z,24.90
2018-10-16T14:50:22.867Z,24.77
2018-10-16T14:52:49.297Z,24.74
2018-10-16T14:55:15.688Z,24.81
2018-10-16T14:57:42.149Z,24.73
2018-10-16T15:00:08.548Z,24.84
2018-10-16T15:02:35.000Z,24.68
2018-10-16T15:05:01.814Z,24.73
2018-10-16T15:07:28.294Z,24.70
2018-10-16T15:09:54.762Z,24.64
2018-10-16T15:12:21.126Z,24.73
2018-10-16T15:14:47.576Z,24.63
2018-10-16T15:17:13.992Z,24.66
2018-10-16T15:19:40.458Z,24.68
2018-10-16T15:22:06.955Z,24.70
2018-10-16T15:24:33.329Z,24.77
2018-10-16T15:26:59.762Z,24.72
2018-10-16T15:29:26.187Z,24.76
2018-10-16T15:31:52.629Z,24.60
2018-10-16T15:34:19.060Z,24.64
2018-10-16T15:36:45.498Z,24.71
2018-10-16T15:39:11.931Z,24.70
2018-10-16T15:41:38.366Z,24.73
2018-10-16T15:44:04.833Z,24.74
2018-10-16T15:46:31.369Z,24.72
2018-10-16T15:48:57.784Z,24.74
2018-10-16T15:51:24.195Z,24.68
2018-10-16T15:53:50.599Z,24.71
2018-10-16T15:56:17.009Z,24.73
2018-10-16T15:58:43.481Z,24.81
2018-10-16T16:01:09.862Z,24.70
2018-10-16T16:03:36.341Z,24.69
2018-10-16T16:06:02.794Z,24.73
2018-10-16T16:08:29.208Z,24.80
2018-10-16T16:10:55.723Z,24.76
2018-10-16T16:13:22.161Z,24.71
2018-10-16T16:15:48.551Z,24.71
2018-10-16T16:18:15.076Z,24.73
2018-10-16T16:20:41.479Z,24.74
2018-10-16T16:23:07.931Z,24.66
2018-10-16T16:25:34.359Z,24.67
2018-10-16T16:28:00.803Z,24.70
2018-10-16T16:30:27.214Z,24.77
2018-10-16T16:32:53.681Z,24.68
2018-10-16T16:35:21.259Z,24.76
2018-10-16T16:37:47.683Z,24.76
2018-10-16T16:40:14.127Z,24.79
2018-10-16T16:42:40.528Z,24.79
2018-10-16T16:45:06.955Z,24.77
2018-10-16T16:47:33.364Z,24.73
2018-10-16T16:49:59.942Z,24.82
2018-10-16T16:52:26.356Z,24.66
2018-10-16T16:54:52.762Z,24.76
2018-10-16T16:57:19.173Z,24.82
2018-10-16T16:59:45.563Z,24.67
2018-10-16T17:02:12.094Z,24.76
2018-10-16T17:04:38.458Z,24.74
2018-10-16T17:07:05.317Z,24.87
2018-10-16T17:09:31.726Z,24.86
2018-10-16T17:11:58.121Z,24.92
2018-10-16T17:14:24.563Z,24.96
2018-10-16T17:16:50.985Z,24.90
2018-10-16T17:19:17.369Z,24.90
2018-10-16T17:21:43.810Z,25.00
2018-10-16T17:24:10.241Z,24.89
2018-10-16T17:26:36.658Z,24.94
2018-10-16T17:29:03.031Z,24.94
2018-10-16T17:31:29.461Z,25.00
2018-10-16T17:33:55.910Z,25.01
2018-10-16T17:36:22.370Z,24.76
2018-10-16T17:38:48.807Z,24.84
2018-10-16T17:41:15.184Z,24.87
2018-10-16T17:43:41.623Z,24.74
2018-10-16T17:46:08.305Z,24.87
2018-10-16T17:48:34.823Z,24.94
2018-10-16T17:51:01.262Z,24.92
2018-10-16T17:53:27.666Z,24.70
2018-10-16T17:55:54.108Z,24.71
2018-10-16T17:58:20.570Z,24.74
2018-10-16T18:00:46.959Z,24.86
2018-10-16T18:03:13.401Z,24.88
2018-10-16T18:05:39.840Z,24.86
2018-10-16T18:08:06.267Z,24.78
2018-10-16T18:10:32.708Z,24.87
2018-10-16T18:12:59.097Z,24.80
2018-10-16T18:15:25.534Z,24.77
2018-10-16T18:17:51.929Z,24.81
2018-10-16T18:20:18.436Z,24.82
2018-10-16T18:22:44.958Z,24.70
2018-10-16T18:25:11.436Z,24.80
2018-10-16T18:27:37.831Z,24.76
2018-10-16T18:30:04.299Z,24.76
2018-10-16T18:32:30.749Z,24.63
2018-10-16T18:34:57.177Z,24.63
2018-10-16T18:37:23.566Z,24.46
2018-10-16T18:39:50.057Z,24.35
2018-10-16T18:42:16.461Z,24.47
2018-10-16T18:44:43.097Z,24.53
2018-10-16T18:47:09.525Z,24.48
2018-10-16T18:49:35.964Z,24.37
2018-10-16T18:52:03.146Z,24.36
2018-10-16T18:54:29.548Z,24.30
2018-10-16T18:56:56.005Z,24.18
2018-10-16T18:59:22.389Z,24.20
2018-10-16T19:01:48.850Z,24.14
2018-10-16T19:04:15.410Z,24.05
2018-10-16T19:06:41.876Z,23.97
2018-10-16T19:09:08.400Z,23.94
2018-10-16T19:11:34.882Z,24.02
2018-10-16T19:14:01.351Z,23.92
2018-10-16T19:16:27.784Z,23.85
2018-10-16T19:18:54.255Z,23.93
2018-10-16T19:21:20.684Z,23.86
2018-10-16T19:23:47.132Z,23.74
2018-10-16T19:26:13.598Z,23.86
2018-10-16T19:28:40.103Z,23.79
2018-10-16T19:31:06.599Z,23.78
2018-10-16T19:33:33.023Z,23.67
2018-10-16T19:35:59.451Z,23.70
2018-10-16T19:38:25.912Z,23.74
2018-10-16T19:40:52.324Z,23.67
2018-10-16T19:43:18.776Z,23.69
2018-10-16T19:45:45.284Z,23.61
2018-10-16T19:48:11.614Z,23.66
2018-10-16T19:50:38.048Z,23.59
2018-10-16T19:53:04.524Z,23.60
2018-10-16T19:55:30.950Z,23.70
2018-10-16T19:57:57.397Z,23.68
2018-10-16T20:00:23.910Z,23.54
2018-10-16T20:02:50.312Z,23.53
2018-10-16T20:05:16.696Z,23.59
2018-10-16T20:07:43.155Z,23.59
2018-10-16T20:10:09.683Z,23.55
2018-10-16T20:12:36.093Z,23.66
2018-10-16T20:15:02.585Z,23.57
2018-10-16T20:17:28.960Z,23.51
2018-10-16T20:19:55.407Z,23.56
2018-10-16T20:22:21.873Z,23.46
2018-10-16T20:24:48.291Z,23.54
2018-10-16T20:27:14.681Z,23.42
2018-10-16T20:29:41.102Z,23.41
2018-10-16T20:32:07.492Z,23.51
2018-10-16T20:34:33.930Z,23.42
2018-10-16T20:37:00.446Z,23.37
2018-10-16T20:39:26.881Z,23.38
2018-10-16T20:41:53.371Z,23.35
2018-10-16T20:44:19.730Z,23.31
2018-10-16T20:46:46.122Z,23.33
2018-10-16T20:49:12.620Z,23.43
2018-10-16T20:51:38.994Z,23.29
2018-10-16T20:54:05.433Z,23.21
2018-10-16T20:56:31.810Z,23.24
2018-10-16T20:58:58.207Z,23.34
2018-10-16T21:01:24.590Z,23.33
2018-10-16T21:03:51.033Z,23.55
2018-10-16T21:06:17.759Z,23.60
2018-10-16T21:08:43.897Z,23.60
2018-10-16T21:11:10.387Z,23.25
2018-10-16T21:13:36.757Z,23.19
2018-10-16T21:16:03.151Z,23.12
2018-10-16T21:18:29.570Z,23.05
2018-10-16T21:20:55.980Z,22.99
2018-10-16T21:23:22.360Z,22.99
2018-10-16T21:25:48.813Z,22.96
2018-10-16T21:28:15.211Z,23.05
2018-10-16T21:30:41.678Z,22.92
2018-10-16T21:33:08.066Z,22.89
2018-10-16T21:35:34.498Z,22.89
2018-10-16T21:38:00.932Z,22.85
2018-10-16T21:40:27.349Z,22.91
2018-10-16T21:42:53.855Z,22.83
2018-10-16T21:45:20.261Z,22.87
2018-10-16T21:47:46.612Z,22.87
2018-10-16T21:50:13.035Z,22.80
2018-10-16T21:52:39.428Z,22.71
2018-10-16T21:55:05.880Z,22.72
2018-10-16T21:57:32.389Z,22.71
2018-10-16T21:59:58.813Z,22.81
2018-10-16T22:02:25.268Z,22.76
2018-10-16T22:04:51.723Z,22.73
2018-10-16T22:07:18.136Z,22.77
2018-10-16T22:09:44.609Z,22.67
2018-10-16T22:12:11.045Z,22.62
2018-10-16T22:14:37.481Z,22.61
2018-10-16T22:17:03.863Z,22.60
2018-10-16T22:19:30.383Z,22.72
2018-10-16T22:21:56.776Z,22.66
2018-10-16T22:24:23.209Z,22.64
2018-10-16T22:26:49.735Z,22.56
2018-10-16T22:29:16.240Z,22.54
2018-10-16T22:31:42.580Z,22.57
2018-10-16T22:34:08.992Z,22.57
2018-10-16T22:36:35.368Z,22.52
2018-10-16T22:39:01.804Z,22.58
2018-10-16T22:41:28.190Z,22.44
2018-10-16T22:43:54.680Z,22.60
2018-10-16T22:46:21.083Z,22.68
2018-10-16T22:48:47.478Z,22.45
2018-10-16T22:51:14.523Z,22.43
2018-10-16T22:53:40.961Z,22.41
2018-10-16T22:56:07.335Z,22.45
2018-10-16T22:58:33.763Z,22.45
2018-10-16T23:01:00.177Z,22.41
2018-10-16T23:03:26.566Z,22.33
2018-10-16T23:05:52.960Z,22.33
2018-10-16T23:08:19.350Z,22.36
2018-10-16T23:10:45.789Z,22.32
2018-10-16T23:13:12.253Z,22.36
2018-10-16T23:15:38.728Z,22.32
2018-10-16T23:18:05.143Z,22.27
2018-10-16T23:20:31.587Z,22.36
2018-10-16T23:22:57.982Z,22.24
2018-10-16T23:25:24.444Z,22.29
2018-10-16T23:27:50.810Z,22.15
2018-10-16T23:30:17.317Z,22.14
2018-10-16T23:32:43.728Z,22.25
2018-10-16T23:35:10.179Z,22.26
2018-10-16T23:37:36.527Z,22.13
2018-10-16T23:40:02.919Z,22.33
2018-10-16T23:42:29.305Z,22.29
2018-10-16T23:44:55.688Z,22.16
2018-10-16T23:47:22.073Z,22.20
2018-10-16T23:49:48.505Z,22.17
2018-10-16T23:52:14.872Z,22.21
2018-10-16T23:54:41.240Z,22.23
2018-10-16T23:57:07.644Z,22.17
2018-10-16T23:59:34.073Z,22.17
